createdAt,value
2023-02-01T00:01:39.137Z,2.90
2023-02-01T00:04:06.683Z,2.47
2023-02-01T00:06:33.985Z,3.38
2023-02-01T00:09:01.188Z,2.92
2023-02-01T00:11:28.523Z,2.83
2023-02-01T00:13:56.260Z,2.83
2023-02-01T00:16:27.995Z,4.32
2023-02-01T00:18:59.325Z,3.20
2023-02-01T00:21:27.002Z,2.95
2023-02-01T00:23:54.241Z,3.72
2023-02-01T00:26:24.634Z,3.92
2023-02-01T00:28:51.895Z,2.58
2023-02-01T00:31:19.193Z,4.03
2023-02-01T00:33:48.585Z,3.00
2023-02-01T00:36:15.855Z,3.90
2023-02-01T00:38:43.114Z,3.83
2023-02-01T00:41:14.529Z,3.30
2023-02-01T00:43:41.825Z,2.95
2023-02-01T00:46:09.438Z,3.70
2023-02-01T00:48:36.862Z,2.70
2023-02-01T00:51:05.394Z,3.25
2023-02-01T00:53:33.021Z,2.92
2023-02-01T00:56:00.617Z,3.67
2023-02-01T00:58:28.232Z,3.60
2023-02-01T01:01:06.224Z,2.78
2023-02-01T01:03:34.819Z,3.58
2023-02-01T01:06:03.222Z,2.63
2023-02-01T01:08:30.561Z,3.92
2023-02-01T01:10:57.903Z,3.30
2023-02-01T01:13:25.405Z,4.00
2023-02-01T01:15:52.617Z,3.40
2023-02-01T01:18:21.393Z,3.42
2023-02-01T01:20:49.822Z,4.25
2023-02-01T01:23:17.070Z,3.08
2023-02-01T01:25:44.325Z,4.15
2023-02-01T01:28:11.547Z,3.53
2023-02-01T01:30:38.878Z,3.13
2023-02-01T01:33:06.127Z,2.92
2023-02-01T01:35:36.444Z,2.90
2023-02-01T01:38:04.111Z,4.35
2023-02-01T01:40:31.423Z,3.22
2023-02-01T01:42:59.361Z,2.95
2023-02-01T01:45:28.270Z,3.33
2023-02-01T01:47:57.153Z,4.28
2023-02-01T01:50:32.276Z,3.03
2023-02-01T01:53:00.831Z,3.00
2023-02-01T01:55:29.543Z,3.05
2023-02-01T01:58:02.004Z,3.80
2023-02-01T02:00:29.316Z,5.03
2023-02-01T02:03:00.471Z,3.45
2023-02-01T02:05:27.948Z,4.53
2023-02-01T02:07:56.142Z,3.22
2023-02-01T02:10:43.339Z,4.05
2023-02-01T02:13:11.023Z,3.45
2023-02-01T02:15:40.220Z,3.28
2023-02-01T02:18:11.246Z,4.70
2023-02-01T02:20:47.680Z,5.10
2023-02-01T02:23:24.537Z,3.78
2023-02-01T02:26:07.442Z,3.83
2023-02-01T02:28:53.650Z,4.25
2023-02-01T02:31:33.203Z,4.65
2023-02-01T02:34:03.525Z,4.00
2023-02-01T02:36:39.736Z,4.30
2023-02-01T02:39:10.005Z,4.10
2023-02-01T02:42:05.061Z,5.18
2023-02-01T02:45:03.040Z,4.28
2023-02-01T02:47:59.355Z,7.07
2023-02-01T02:50:50.365Z,4.45
2023-02-01T02:53:42.242Z,4.20
2023-02-01T02:56:30.131Z,5.00
2023-02-01T02:59:16.236Z,4.07
2023-02-01T03:02:02.585Z,4.95
2023-02-01T03:04:29.901Z,3.65
2023-02-01T03:06:57.228Z,4.13
2023-02-01T03:09:24.465Z,3.22
2023-02-01T03:12:11.865Z,5.68
2023-02-01T03:14:39.910Z,2.58
2023-02-01T03:17:11.487Z,3.65
2023-02-01T03:19:49.520Z,3.38
2023-02-01T03:22:18.787Z,3.55
2023-02-01T03:24:48.435Z,3.65
2023-02-01T03:27:28.914Z,3.47
2023-02-01T03:30:02.074Z,3.28
2023-02-01T03:32:29.679Z,3.22
2023-02-01T03:34:57.523Z,3.08
2023-02-01T03:37:27.453Z,3.40
2023-02-01T03:39:54.681Z,2.90
2023-02-01T03:42:25.798Z,3.10
2023-02-01T03:44:59.472Z,3.03
2023-02-01T03:47:27.849Z,3.33
2023-02-01T03:49:57.266Z,2.95
2023-02-01T03:52:27.304Z,3.35
2023-02-01T03:54:54.934Z,3.10
2023-02-01T03:57:26.132Z,3.13
2023-02-01T03:59:53.336Z,3.20
2023-02-01T04:02:20.686Z,3.80
2023-02-01T04:04:47.945Z,3.50
2023-02-01T04:07:15.196Z,3.72
2023-02-01T04:09:43.127Z,3.58
2023-02-01T04:12:10.427Z,3.35
2023-02-01T04:14:37.652Z,3.70
2023-02-01T04:17:04.889Z,3.97
2023-02-01T04:19:32.207Z,3.67
2023-02-01T04:21:59.463Z,3.58
2023-02-01T04:24:26.713Z,5.25
2023-02-01T04:26:54.122Z,3.65
2023-02-01T04:29:21.397Z,4.25
2023-02-01T04:31:48.789Z,5.60
2023-02-01T04:34:16.150Z,3.78
2023-02-01T04:36:45.766Z,3.58
2023-02-01T04:39:14.330Z,5.35
2023-02-01T04:41:42.151Z,3.92
2023-02-01T04:44:14.691Z,4.07
2023-02-01T04:46:42.188Z,3.50
2023-02-01T04:49:10.734Z,4.07
2023-02-01T04:51:38.333Z,3.72
2023-02-01T04:54:05.834Z,3.63
2023-02-01T04:56:33.226Z,4.70
2023-02-01T04:59:00.472Z,3.65
2023-02-01T05:01:27.808Z,3.72
2023-02-01T05:03:55.078Z,4.05
2023-02-01T05:06:22.949Z,4.40
2023-02-01T05:08:50.200Z,3.40
2023-02-01T05:11:35.957Z,3.97
2023-02-01T05:16:30.359Z,3.45
2023-02-01T05:18:57.578Z,4.53
2023-02-01T05:21:24.986Z,3.40
2023-02-01T05:24:10.675Z,3.92
2023-02-01T05:29:05.856Z,3.45
2023-02-01T05:31:33.183Z,3.42
2023-02-01T05:34:00.436Z,3.05
2023-02-01T05:36:27.702Z,3.50
2023-02-01T05:38:54.971Z,3.10
2023-02-01T05:41:22.482Z,4.18
2023-02-01T05:43:49.719Z,6.13
2023-02-01T05:46:17.015Z,5.65
2023-02-01T05:48:44.704Z,4.45
2023-02-01T05:51:12.905Z,3.80
2023-02-01T05:53:40.143Z,3.85
2023-02-01T05:56:07.636Z,3.75
2023-02-01T05:58:34.856Z,3.90
2023-02-01T06:01:02.813Z,4.25
2023-02-01T06:03:30.174Z,4.15
2023-02-01T06:05:57.380Z,3.75
2023-02-01T06:08:26.761Z,4.63
2023-02-01T06:10:59.304Z,4.20
2023-02-01T06:13:26.585Z,4.22
2023-02-01T06:15:53.976Z,4.32
2023-02-01T06:18:21.417Z,5.35
2023-02-01T06:20:54.219Z,4.55
2023-02-01T06:23:24.757Z,4.07
2023-02-01T06:26:00.524Z,3.90
2023-02-01T06:28:27.860Z,4.15
2023-02-01T06:30:55.132Z,4.05
2023-02-01T06:33:22.511Z,3.72
2023-02-01T06:35:49.792Z,5.00
2023-02-01T06:38:17.205Z,4.65
2023-02-01T06:40:44.834Z,3.90
2023-02-01T06:43:12.031Z,4.30
2023-02-01T06:45:39.749Z,4.60
2023-02-01T06:48:07.083Z,5.05
2023-02-01T06:50:36.236Z,4.07
2023-02-01T06:53:03.522Z,5.05
2023-02-01T06:55:30.723Z,4.95
2023-02-01T06:57:58.193Z,4.38
2023-02-01T07:00:25.833Z,4.18
2023-02-01T07:02:53.329Z,5.10
2023-02-01T07:05:20.592Z,5.38
2023-02-01T07:07:47.867Z,5.60
2023-02-01T07:10:15.143Z,5.43
2023-02-01T07:12:42.387Z,5.97
2023-02-01T07:15:09.821Z,5.88
2023-02-01T07:17:37.415Z,5.30
2023-02-01T07:20:05.181Z,5.20
2023-02-01T07:22:32.498Z,5.32
2023-02-01T07:24:59.762Z,4.90
2023-02-01T07:27:27.020Z,5.45
2023-02-01T07:29:56.638Z,5.50
2023-02-01T07:32:23.967Z,5.60
2023-02-01T07:34:51.195Z,7.07
2023-02-01T07:37:19.146Z,7.80
2023-02-01T07:39:46.373Z,5.35
2023-02-01T07:42:13.672Z,5.88
2023-02-01T07:44:40.933Z,7.10
2023-02-01T07:47:08.259Z,7.05
2023-02-01T07:49:35.693Z,6.13
2023-02-01T07:52:02.943Z,7.93
2023-02-01T07:54:30.221Z,5.82
2023-02-01T07:56:58.130Z,6.78
2023-02-01T07:59:25.399Z,7.40
2023-02-01T08:01:52.693Z,7.00
2023-02-01T08:04:20.086Z,5.75
2023-02-01T08:06:47.326Z,6.07
2023-02-01T08:09:14.733Z,6.28
2023-02-01T08:11:42.047Z,5.60
2023-02-01T08:14:09.290Z,6.13
2023-02-01T08:16:38.408Z,6.00
2023-02-01T08:19:05.840Z,5.80
2023-02-01T08:21:39.107Z,5.88
2023-02-01T08:24:07.725Z,5.72
2023-02-01T08:26:35.104Z,5.35
2023-02-01T08:29:04.179Z,4.90
2023-02-01T08:31:32.100Z,5.32
2023-02-01T08:34:00.533Z,4.57
2023-02-01T08:36:28.763Z,5.13
2023-02-01T08:38:56.252Z,4.57
2023-02-01T08:41:25.247Z,5.15
2023-02-01T08:43:52.528Z,3.67
2023-02-01T08:46:19.805Z,3.92
2023-02-01T08:48:48.230Z,4.28
2023-02-01T08:51:16.401Z,5.03
2023-02-01T08:53:43.797Z,4.10
2023-02-01T08:56:12.326Z,5.32
2023-02-01T08:58:39.799Z,3.45
2023-02-01T09:01:08.052Z,3.28
2023-02-01T09:03:35.665Z,4.50
2023-02-01T09:06:03.705Z,3.60
2023-02-01T09:08:31.163Z,5.20
2023-02-01T09:11:03.404Z,4.18
2023-02-01T09:13:31.043Z,5.07
2023-02-01T09:16:00.960Z,4.15
2023-02-01T09:18:28.307Z,3.65
2023-02-01T09:20:55.560Z,3.85
2023-02-01T09:23:23.527Z,3.42
2023-02-01T09:25:52.497Z,3.33
2023-02-01T09:28:20.495Z,3.17
2023-02-01T09:30:47.931Z,4.53
2023-02-01T09:33:15.581Z,3.50
2023-02-01T09:35:42.842Z,3.95
2023-02-01T09:38:10.109Z,3.22
2023-02-01T09:40:37.517Z,4.55
2023-02-01T09:43:17.052Z,3.45
2023-02-01T09:46:07.391Z,3.60
2023-02-01T09:48:36.794Z,3.88
2023-02-01T09:51:06.435Z,3.47
2023-02-01T09:53:38.220Z,4.15
2023-02-01T09:56:12.273Z,5.40
2023-02-01T09:58:39.625Z,4.28
2023-02-01T10:01:12.731Z,4.53
2023-02-01T10:03:40.686Z,4.47
2023-02-01T10:06:13.459Z,4.03
2023-02-01T10:08:40.680Z,4.10
2023-02-01T10:11:29.316Z,4.93
2023-02-01T10:14:14.015Z,4.30
2023-02-01T10:16:44.415Z,4.15
2023-02-01T10:19:24.194Z,3.50
2023-02-01T10:22:05.908Z,3.95
2023-02-01T10:24:48.699Z,3.78
2023-02-01T10:27:19.166Z,5.78
2023-02-01T10:29:48.432Z,4.60
2023-02-01T10:32:17.731Z,3.80
2023-02-01T10:34:48.005Z,4.53
2023-02-01T10:37:20.489Z,4.13
2023-02-01T10:39:50.027Z,5.57
2023-02-01T10:42:19.793Z,5.05
2023-02-01T10:44:49.167Z,5.68
2023-02-01T10:47:16.913Z,4.55
2023-02-01T10:50:19.698Z,4.50
2023-02-01T10:52:50.151Z,4.18
2023-02-01T10:55:40.791Z,4.10
2023-02-01T10:58:16.692Z,5.07
2023-02-01T11:00:49.652Z,3.85
2023-02-01T11:03:35.574Z,4.97
2023-02-01T11:06:04.448Z,3.88
2023-02-01T11:08:31.885Z,3.75
2023-02-01T11:11:00.886Z,5.00
2023-02-01T11:13:32.950Z,4.53
2023-02-01T11:16:00.364Z,5.30
2023-02-01T11:18:32.078Z,4.63
2023-02-01T11:21:00.900Z,4.32
2023-02-01T11:23:29.366Z,4.95
2023-02-01T11:26:00.857Z,4.22
2023-02-01T11:28:32.755Z,5.32
2023-02-01T11:31:01.561Z,4.47
2023-02-01T11:33:31.494Z,3.78
2023-02-01T11:35:59.860Z,3.97
2023-02-01T11:38:29.776Z,4.00
2023-02-01T11:40:57.093Z,3.35
2023-02-01T11:43:28.715Z,3.05
2023-02-01T11:45:57.137Z,3.83
2023-02-01T11:48:27.311Z,3.58
2023-02-01T11:51:00.851Z,2.88
2023-02-01T11:53:40.184Z,3.85
2023-02-01T11:56:19.317Z,2.90
2023-02-01T11:58:49.308Z,2.85
2023-02-01T12:01:17.157Z,3.70
2023-02-01T12:03:50.493Z,4.57
2023-02-01T12:06:26.617Z,4.10
2023-02-01T12:09:02.805Z,3.95
2023-02-01T12:11:36.517Z,3.65
2023-02-01T12:14:06.785Z,4.63
2023-02-01T12:16:41.849Z,5.22
2023-02-01T12:19:24.251Z,4.30
2023-02-01T12:21:57.911Z,5.05
2023-02-01T12:24:25.099Z,4.13
2023-02-01T12:27:09.885Z,4.03
2023-02-01T12:29:43.196Z,3.75
2023-02-01T12:32:19.430Z,5.05
2023-02-01T12:35:25.602Z,3.75
2023-02-01T12:37:56.978Z,3.65
2023-02-01T12:40:50.789Z,4.22
2023-02-01T12:43:36.491Z,3.78
2023-02-01T12:48:36.476Z,3.70
2023-02-01T12:51:06.622Z,3.80
2023-02-01T12:53:47.047Z,3.40
2023-02-01T12:56:24.462Z,3.90
2023-02-01T12:58:55.804Z,3.65
2023-02-01T13:01:29.393Z,3.47
2023-02-01T13:03:56.725Z,3.40
2023-02-01T13:06:24.034Z,3.40
2023-02-01T13:09:11.625Z,3.92
2023-02-01T13:11:39.917Z,3.80
2023-02-01T13:14:19.664Z,4.10
2023-02-01T13:16:49.368Z,5.50
2023-02-01T13:19:16.668Z,3.13
2023-02-01T13:21:47.639Z,3.95
2023-02-01T13:24:27.119Z,4.07
2023-02-01T13:26:57.387Z,4.07
2023-02-01T13:29:26.127Z,4.45
2023-02-01T13:34:40.176Z,3.95
2023-02-01T13:37:24.127Z,4.03
2023-02-01T13:40:09.836Z,4.32
2023-02-01T13:45:16.495Z,3.60
2023-02-01T13:47:45.477Z,4.35
2023-02-01T13:58:14.096Z,2.97
2023-02-01T14:00:44.077Z,3.40
2023-02-01T14:03:17.021Z,3.65
2023-02-01T14:05:44.928Z,3.53
2023-02-01T14:08:16.448Z,3.20
2023-02-01T14:13:30.481Z,2.90
2023-02-01T14:16:03.974Z,3.22
2023-02-01T14:18:45.577Z,3.50
2023-02-01T14:21:32.029Z,3.78
2023-02-01T14:26:37.209Z,4.05
2023-02-01T14:29:21.376Z,3.70
2023-02-01T14:31:56.135Z,3.58
2023-02-01T14:34:44.135Z,3.70
2023-02-01T14:37:21.900Z,3.28
2023-02-01T14:39:58.149Z,3.25
2023-02-01T14:42:37.522Z,3.20
2023-02-01T14:45:20.148Z,4.10
2023-02-01T14:47:49.099Z,3.40
2023-02-01T14:50:20.215Z,3.30
2023-02-01T14:52:49.154Z,3.50
2023-02-01T14:55:16.371Z,4.00
2023-02-01T14:57:44.919Z,3.42
2023-02-01T15:00:24.131Z,3.35
2023-02-01T15:02:52.128Z,2.78
2023-02-01T15:05:34.042Z,3.47
2023-02-01T15:08:14.389Z,3.50
2023-02-01T15:10:44.412Z,3.28
2023-02-01T15:13:26.196Z,3.28
2023-02-01T15:16:12.422Z,3.45
2023-02-01T15:18:39.850Z,3.90
2023-02-01T15:21:28.691Z,4.20
2023-02-01T15:24:11.811Z,1.20
2023-02-01T15:26:41.936Z,1.20
2023-02-01T15:29:15.809Z,1.75
2023-02-01T15:31:44.047Z,1.27
2023-02-01T15:34:11.709Z,1.10
2023-02-01T15:36:39.344Z,0.90
2023-02-01T15:39:19.632Z,1.10
2023-02-01T15:41:51.547Z,1.02
2023-02-01T15:44:21.827Z,2.92
2023-02-01T15:46:50.926Z,0.85
2023-02-01T15:49:25.346Z,1.55
2023-02-01T15:51:53.103Z,0.90
2023-02-01T15:54:28.754Z,1.77
2023-02-01T15:56:57.348Z,1.70
2023-02-01T15:59:31.400Z,0.55
2023-02-01T16:01:59.012Z,0.80
2023-02-01T16:04:27.823Z,0.90
2023-02-01T16:06:56.161Z,1.02
2023-02-01T16:09:25.601Z,1.00
2023-02-01T16:11:55.871Z,0.90
2023-02-01T16:14:23.485Z,1.10
2023-02-01T16:16:51.310Z,1.38
2023-02-01T16:19:18.665Z,1.25
2023-02-01T16:21:46.585Z,0.95
2023-02-01T16:24:14.122Z,2.80
2023-02-01T16:26:41.540Z,1.42
2023-02-01T16:29:09.502Z,1.50
2023-02-01T16:31:38.359Z,1.40
2023-02-01T16:34:06.986Z,1.35
2023-02-01T16:39:04.103Z,1.92
2023-02-01T16:41:31.505Z,4.88
2023-02-01T16:43:58.735Z,1.83
2023-02-01T16:46:27.103Z,2.25
2023-02-01T16:48:58.351Z,2.47
2023-02-01T16:51:26.598Z,2.05
2023-02-01T16:53:55.092Z,2.65
2023-02-01T16:56:23.885Z,6.35
2023-02-01T16:58:51.289Z,6.05
2023-02-01T17:01:20.012Z,4.40
2023-02-01T17:03:47.538Z,1.83
2023-02-01T17:06:16.833Z,1.58
2023-02-01T17:08:45.394Z,0.95
2023-02-01T17:11:14.185Z,1.70
2023-02-01T17:13:42.239Z,1.30
2023-02-01T17:16:15.448Z,1.65
2023-02-01T17:18:42.748Z,1.58
2023-02-01T17:21:11.364Z,2.13
2023-02-01T17:23:38.737Z,1.80
2023-02-01T17:26:06.059Z,1.70
2023-02-01T17:28:33.356Z,1.50
2023-02-01T17:31:00.669Z,1.05
2023-02-01T17:33:28.038Z,1.00
2023-02-01T17:35:56.111Z,0.77
2023-02-01T17:38:23.875Z,1.70
2023-02-01T17:40:51.216Z,1.35
2023-02-01T17:43:22.006Z,1.60
2023-02-01T17:46:08.129Z,1.83
2023-02-01T17:48:35.633Z,1.92
2023-02-01T17:51:03.012Z,2.20
2023-02-01T17:53:30.612Z,2.58
2023-02-01T17:55:58.519Z,2.17
2023-02-01T17:58:26.745Z,2.53
2023-02-01T18:00:54.733Z,1.80
2023-02-01T18:03:24.949Z,1.77
2023-02-01T18:05:53.802Z,2.00
2023-02-01T18:08:22.568Z,1.50
2023-02-01T18:10:50.725Z,1.67
2023-02-01T18:13:18.002Z,1.63
2023-02-01T18:15:45.332Z,1.90
2023-02-01T18:18:12.696Z,1.50
2023-02-01T18:20:41.274Z,2.17
2023-02-01T18:23:13.139Z,1.75
2023-02-01T18:25:40.527Z,2.38
2023-02-01T18:28:07.737Z,2.70
2023-02-01T18:30:35.891Z,2.35
2023-02-01T18:33:03.234Z,3.10
2023-02-01T18:35:31.828Z,3.38
2023-02-01T18:37:59.489Z,3.30
2023-02-01T18:40:32.996Z,2.22
2023-02-01T18:43:00.581Z,7.38
2023-02-01T18:45:46.875Z,6.47
2023-02-01T18:48:15.140Z,5.22
2023-02-01T18:50:44.023Z,6.85
2023-02-01T18:53:16.227Z,6.63
2023-02-01T18:55:43.749Z,6.60
2023-02-01T18:58:12.852Z,6.75
2023-02-01T19:00:40.151Z,7.28
2023-02-01T19:03:07.407Z,6.50
2023-02-01T19:05:34.684Z,6.68
2023-02-01T19:08:01.987Z,5.10
2023-02-01T19:10:29.218Z,5.43
2023-02-01T19:12:57.583Z,4.30
2023-02-01T19:15:26.071Z,5.30
2023-02-01T19:17:57.330Z,4.63
2023-02-01T19:20:25.855Z,5.47
2023-02-01T19:22:53.633Z,5.43
2023-02-01T19:25:22.748Z,4.55
2023-02-01T19:27:50.756Z,4.72
2023-02-01T19:30:19.347Z,5.13
2023-02-01T19:32:47.004Z,5.22
2023-02-01T19:35:16.999Z,5.00
2023-02-01T19:37:44.306Z,4.80
2023-02-01T19:40:12.576Z,3.58
2023-02-01T19:42:39.899Z,3.40
2023-02-01T19:45:07.601Z,3.65
2023-02-01T19:47:34.955Z,2.88
2023-02-01T19:50:02.328Z,3.05
2023-02-01T19:52:29.567Z,2.67
2023-02-01T19:54:56.857Z,2.67
2023-02-01T19:57:24.075Z,2.88
2023-02-01T19:59:51.416Z,2.72
2023-02-01T20:02:17.794Z,2.63
2023-02-01T20:04:45.059Z,2.90
2023-02-01T20:07:12.439Z,4.20
2023-02-01T20:09:43.585Z,2.75
2023-02-01T20:12:11.637Z,2.40
2023-02-01T20:14:39.208Z,2.70
2023-02-01T20:17:07.210Z,2.42
2023-02-01T20:19:34.974Z,4.15
2023-02-01T20:22:02.276Z,2.65
2023-02-01T20:24:29.604Z,2.80
2023-02-01T20:26:57.981Z,4.10
2023-02-01T20:29:25.359Z,3.45
2023-02-01T20:31:52.652Z,2.70
2023-02-01T20:34:20.646Z,2.38
2023-02-01T20:36:47.918Z,2.45
2023-02-01T20:39:15.124Z,3.40
2023-02-01T20:41:43.732Z,2.10
2023-02-01T20:44:11.025Z,3.17
2023-02-01T20:46:38.280Z,2.17
2023-02-01T20:49:05.628Z,2.67
2023-02-01T20:51:32.951Z,2.30
2023-02-01T20:54:00.196Z,3.15
2023-02-01T20:56:28.188Z,2.50
2023-02-01T20:59:03.061Z,2.00
2023-02-01T21:01:30.906Z,2.88
2023-02-01T21:03:58.226Z,3.17
2023-02-01T21:06:25.552Z,2.65
2023-02-01T21:08:52.825Z,2.58
2023-02-01T21:11:20.150Z,3.22
2023-02-01T21:13:53.388Z,3.03
2023-02-01T21:16:22.104Z,2.55
2023-02-01T21:18:53.760Z,2.45
2023-02-01T21:21:21.463Z,2.80
2023-02-01T21:23:53.192Z,3.53
2023-02-01T21:26:24.328Z,2.90
2023-02-01T21:28:52.541Z,2.60
2023-02-01T21:31:22.336Z,2.55
2023-02-01T21:33:50.266Z,3.03
2023-02-01T21:36:20.680Z,2.35
2023-02-01T21:38:52.459Z,2.72
2023-02-01T21:41:39.282Z,2.78
2023-02-01T21:44:06.764Z,2.00
2023-02-01T21:46:34.057Z,3.22
2023-02-01T21:49:04.856Z,3.25
2023-02-01T21:51:35.402Z,2.20
2023-02-01T21:54:03.069Z,2.72
2023-02-01T21:56:30.326Z,2.78
2023-02-01T21:58:57.579Z,2.47
2023-02-01T22:01:26.301Z,3.22
2023-02-01T22:03:53.690Z,2.20
2023-02-01T22:06:27.679Z,3.75
2023-02-01T22:08:55.288Z,2.13
2023-02-01T22:11:22.930Z,2.67
2023-02-01T22:13:50.242Z,2.25
2023-02-01T22:16:18.423Z,4.03
2023-02-01T22:18:46.501Z,3.22
2023-02-01T22:21:13.759Z,5.32
2023-02-01T22:23:40.976Z,2.80
2023-02-01T22:26:09.189Z,2.88
2023-02-01T22:28:37.172Z,3.00
2023-02-01T22:31:06.159Z,3.15
2023-02-01T22:33:33.948Z,2.58
2023-02-01T22:36:01.654Z,2.75
2023-02-01T22:38:31.585Z,2.67
2023-02-01T22:40:59.928Z,2.20
2023-02-01T22:43:27.226Z,2.83
2023-02-01T22:45:54.478Z,3.05
2023-02-01T22:48:21.950Z,2.42
2023-02-01T22:50:49.319Z,2.17
2023-02-01T22:53:16.519Z,2.67
2023-02-01T22:55:45.544Z,2.70
2023-02-01T22:58:12.948Z,2.63
2023-02-01T23:00:40.167Z,2.45
2023-02-01T23:03:08.197Z,2.35
2023-02-01T23:05:35.457Z,2.15
2023-02-01T23:08:04.226Z,2.53
2023-02-01T23:10:31.427Z,2.30
2023-02-01T23:12:58.654Z,1.60
2023-02-01T23:15:26.133Z,1.98
2023-02-01T23:17:53.530Z,2.40
2023-02-01T23:20:21.083Z,2.83
2023-02-01T23:22:49.299Z,2.15
2023-02-01T23:25:17.949Z,2.40
2023-02-01T23:27:47.368Z,2.13
2023-02-01T23:30:16.610Z,2.35
2023-02-01T23:32:44.043Z,2.50
2023-02-01T23:35:11.380Z,2.15
2023-02-01T23:37:40.733Z,2.30
2023-02-01T23:40:08.219Z,2.70
2023-02-01T23:42:36.012Z,2.83
2023-02-01T23:45:03.969Z,2.35
2023-02-01T23:47:31.174Z,2.70
2023-02-01T23:49:58.449Z,2.55
2023-02-01T23:52:25.756Z,3.78
2023-02-01T23:54:52.981Z,2.20
2023-02-01T23:57:20.307Z,2.15
2023-02-01T23:59:48.800Z,2.17
